Time;durP1;ratioP1;P1;durP2;ratioP2;P2;SDS_P1;SDS_P2;PMS_P1;PMS_P2;Temp;Humidity;BMP_temperature;BMP_pressure;BME280_temperature;BME280_humidity;BME280_pressure;Samples;Min_cycle;Max_cycle;Signal;HPM_P1;HPM_P2
2023/01/08 00:01:32;;;;;;;3.50;3.10;;;17.50;51.90;;;;;;4978434;28;20210;-84
2023/01/08 00:04:01;;;;;;;3.05;2.80;;;17.40;52.20;;;;;;4978417;28;20201;-84
2023/01/08 00:06:28;;;;;;;3.22;2.92;;;17.40;52.20;;;;;;4978608;28;20347;-84
2023/01/08 00:08:55;;;;;;;4.30;3.10;;;17.40;52.20;;;;;;4978519;28;20240;-84
2023/01/08 00:11:22;;;;;;;3.35;3.05;;;17.30;52.10;;;;;;4978235;28;20645;-85
2023/01/08 00:13:49;;;;;;;3.38;3.08;;;17.30;52.30;;;;;;4978455;28;20692;-84
2023/01/08 00:16:17;;;;;;;3.53;3.22;;;17.30;52.50;;;;;;4978714;28;20205;-84
2023/01/08 00:18:44;;;;;;;3.40;3.10;;;17.30;52.40;;;;;;4978321;28;20225;-85
2023/01/08 00:21:13;;;;;;;3.35;3.05;;;17.20;52.20;;;;;;4978360;28;20193;-84
2023/01/08 00:23:40;;;;;;;2.85;2.65;;;17.30;52.30;;;;;;4978055;28;20189;-84
2023/01/08 00:26:08;;;;;;;3.13;2.83;;;17.20;52.20;;;;;;4978042;28;20201;-84
2023/01/08 00:28:36;;;;;;;4.18;2.92;;;17.20;52.30;;;;;;4977883;28;20620;-84
2023/01/08 00:31:04;;;;;;;3.63;3.28;;;17.20;52.30;;;;;;4977794;28;20205;-85
2023/01/08 00:33:31;;;;;;;3.08;2.83;;;17.10;52.30;;;;;;4977848;28;20217;-84
2023/01/08 00:35:58;;;;;;;3.38;3.08;;;17.10;52.30;;;;;;4978266;28;20653;-84
2023/01/08 00:38:27;;;;;;;2.90;2.70;;;17.10;52.20;;;;;;4978191;28;20226;-84
2023/01/08 00:40:54;;;;;;;3.33;3.00;;;17.10;52.30;;;;;;4977892;28;20544;-85
2023/01/08 00:43:21;;;;;;;3.47;3.17;;;17.10;52.30;;;;;;4977879;28;20723;-85
2023/01/08 00:45:50;;;;;;;3.40;2.80;;;17.10;52.30;;;;;;4979378;28;20656;-84
2023/01/08 00:48:17;;;;;;;3.30;3.00;;;17.10;52.30;;;;;;4979263;28;20293;-84
2023/01/08 00:50:44;;;;;;;4.13;3.53;;;17.10;52.30;;;;;;4978623;28;20197;-84
2023/01/08 00:53:12;;;;;;;4.00;3.60;;;17.00;52.20;;;;;;4977915;28;20216;-84
2023/01/08 00:55:40;;;;;;;4.13;3.83;;;17.00;52.50;;;;;;4978461;28;20251;-84
2023/01/08 00:58:28;;;;;;;3.70;3.40;;;17.00;52.50;;;;;;4995093;28;20307;-84
2023/01/08 01:00:55;;;;;;;3.38;3.08;;;17.00;53.20;;;;;;4961673;28;20194;-84
2023/01/08 01:03:22;;;;;;;3.58;3.28;;;17.00;52.80;;;;;;4977427;28;20293;-84
2023/01/08 01:05:49;;;;;;;3.53;3.22;;;17.00;52.60;;;;;;4977482;28;20201;-83
2023/01/08 01:08:16;;;;;;;3.85;3.05;;;16.90;52.30;;;;;;4977413;28;20715;-83
2023/01/08 01:10:44;;;;;;;3.40;3.10;;;17.00;52.60;;;;;;4993973;28;20201;-84
2023/01/08 01:13:12;;;;;;;2.92;2.72;;;16.90;52.30;;;;;;4977446;28;20700;-84
2023/01/08 01:15:39;;;;;;;3.33;3.00;;;16.90;52.60;;;;;;4977470;28;20225;-84
2023/01/08 01:18:06;;;;;;;3.13;2.83;;;16.90;52.50;;;;;;4977204;28;20245;-84
2023/01/08 01:20:33;;;;;;;3.08;2.83;;;16.90;52.40;;;;;;4977341;28;20198;-84
2023/01/08 01:23:00;;;;;;;3.45;2.70;;;16.90;52.50;;;;;;4977650;28;20204;-84
2023/01/08 01:25:28;;;;;;;5.47;3.25;;;16.90;52.40;;;;;;4961654;28;20577;-84
2023/01/08 01:27:56;;;;;;;3.30;3.00;;;16.90;52.50;;;;;;4977132;28;20225;-85
2023/01/08 01:30:24;;;;;;;3.38;3.05;;;16.90;52.60;;;;;;4977036;28;20292;-85
2023/01/08 01:32:51;;;;;;;3.75;3.45;;;16.90;52.70;;;;;;4977272;28;20218;-84
2023/01/08 01:35:18;;;;;;;3.22;3.00;;;16.90;52.60;;;;;;4977309;28;20216;-84
2023/01/08 01:37:45;;;;;;;3.53;2.80;;;16.90;52.50;;;;;;4976965;28;20208;-84
2023/01/08 01:40:12;;;;;;;3.47;2.70;;;16.90;52.50;;;;;;4961553;28;20207;-84
2023/01/08 01:42:39;;;;;;;4.40;3.22;;;16.90;52.60;;;;;;4977196;28;20193;-84
2023/01/08 01:45:15;;;;;;;3.28;2.97;;;16.90;52.70;;;;;;4977580;28;20576;-84
2023/01/08 01:47:42;;;;;;;3.38;3.08;;;16.90;52.70;;;;;;4978047;28;20201;-84
2023/01/08 01:50:11;;;;;;;3.78;3.47;;;16.90;52.60;;;;;;4976847;28;20206;-84
2023/01/08 01:52:40;;;;;;;3.25;2.95;;;16.80;52.60;;;;;;4978069;28;20213;-84
2023/01/08 01:55:08;;;;;;;3.50;3.20;;;16.90;52.70;;;;;;4978218;28;20216;-84
2023/01/08 01:57:35;;;;;;;3.58;3.28;;;16.80;52.70;;;;;;4976994;28;20197;-84
2023/01/08 02:00:04;;;;;;;3.20;3.00;;;16.80;52.50;;;;;;4976985;28;20295;-84
2023/01/08 02:02:40;;;;;;;3.30;3.00;;;16.80;52.60;;;;;;4994378;28;20214;-84
2023/01/08 02:05:07;;;;;;;3.85;3.55;;;16.80;52.60;;;;;;4977278;28;20212;-83
2023/01/08 02:07:38;;;;;;;3.55;3.25;;;16.80;52.80;;;;;;4977160;28;20244;-83
2023/01/08 02:10:07;;;;;;;3.63;3.33;;;16.80;52.60;;;;;;4984379;28;20556;-83
2023/01/08 02:12:37;;;;;;;4.95;3.30;;;16.80;52.50;;;;;;4977140;28;20201;-83
2023/01/08 02:15:10;;;;;;;3.65;3.30;;;16.80;52.60;;;;;;4980110;28;20212;-83
2023/01/08 02:17:41;;;;;;;4.45;3.47;;;16.80;52.60;;;;;;4980918;28;20219;-84
2023/01/08 02:20:11;;;;;;;3.50;3.20;;;16.80;53.30;;;;;;4981264;28;20201;-84
2023/01/08 02:22:47;;;;;;;3.97;3.20;;;16.70;52.70;;;;;;4980661;28;20297;-84
2023/01/08 02:25:19;;;;;;;3.50;3.20;;;16.70;52.60;;;;;;4980552;28;20287;-84
2023/01/08 02:27:49;;;;;;;3.35;3.08;;;16.80;52.80;;;;;;4980414;28;20193;-84
2023/01/08 02:30:16;;;;;;;3.38;3.08;;;16.80;52.90;;;;;;4981030;28;20202;-84
2023/01/08 02:32:43;;;;;;;3.70;3.40;;;16.80;52.90;;;;;;4980050;28;20197;-84
2023/01/08 02:35:11;;;;;;;3.53;3.22;;;16.80;52.90;;;;;;4980443;28;20197;-84
2023/01/08 02:37:38;;;;;;;3.40;3.10;;;16.70;52.80;;;;;;4980074;28;20205;-84
2023/01/08 02:40:16;;;;;;;3.92;3.25;;;16.70;52.80;;;;;;4980297;28;20205;-84
2023/01/08 02:42:45;;;;;;;4.07;3.65;;;16.70;52.80;;;;;;4980012;28;20212;-84
2023/01/08 02:45:20;;;;;;;3.67;3.38;;;16.70;52.70;;;;;;4980040;28;20211;-85
2023/01/08 02:47:49;;;;;;;3.63;3.33;;;16.70;52.70;;;;;;4980537;28;20589;-84
2023/01/08 02:50:19;;;;;;;4.95;3.72;;;16.70;52.60;;;;;;4980143;28;20207;-85
2023/01/08 02:52:50;;;;;;;3.50;3.20;;;16.70;52.80;;;;;;4980142;28;20208;-85
2023/01/08 02:55:18;;;;;;;3.33;3.10;;;16.70;52.70;;;;;;4980440;28;20329;-85
2023/01/08 02:57:44;;;;;;;3.70;3.40;;;16.70;52.80;;;;;;4981357;28;20209;-84
2023/01/08 03:00:13;;;;;;;4.10;3.60;;;16.70;52.80;;;;;;4981241;28;20201;-84
2023/01/08 03:02:41;;;;;;;3.80;3.50;;;16.70;52.80;;;;;;4981821;28;20212;-84
2023/01/08 03:05:13;;;;;;;4.00;3.65;;;16.70;52.80;;;;;;4980112;28;20209;-84
2023/01/08 03:07:40;;;;;;;3.70;3.33;;;16.70;52.70;;;;;;4979954;28;20539;-84
2023/01/08 03:10:08;;;;;;;4.05;3.65;;;16.70;52.70;;;;;;4979658;28;20225;-85
2023/01/08 03:12:44;;;;;;;4.32;3.70;;;16.70;52.70;;;;;;4995892;28;20237;-84
2023/01/08 03:15:13;;;;;;;3.25;3.03;;;16.70;52.80;;;;;;4979785;28;20196;-84
2023/01/08 03:17:43;;;;;;;3.70;3.40;;;16.70;52.80;;;;;;4979399;28;20236;-83
2023/01/08 03:20:13;;;;;;;3.90;3.50;;;16.70;52.70;;;;;;4979512;28;20300;-84
2023/01/08 03:22:41;;;;;;;3.88;3.58;;;16.70;52.80;;;;;;4980005;28;20208;-84
2023/01/08 03:25:08;;;;;;;3.90;3.60;;;16.70;52.80;;;;;;4995184;28;20556;-84
2023/01/08 03:27:37;;;;;;;3.70;3.40;;;16.70;52.80;;;;;;4978928;28;20205;-84
2023/01/08 03:30:06;;;;;;;3.75;3.45;;;16.60;52.70;;;;;;4979302;28;20587;-84
2023/01/08 03:32:33;;;;;;;3.83;3.53;;;16.70;52.90;;;;;;4963147;28;20268;-84
2023/01/08 03:35:01;;;;;;;3.47;3.22;;;16.60;52.80;;;;;;4979162;28;20217;-84
2023/01/08 03:37:36;;;;;;;3.88;3.58;;;16.60;52.80;;;;;;4979113;28;20296;-84
2023/01/08 03:40:05;;;;;;;3.88;3.58;;;16.70;52.90;;;;;;4978927;28;20201;-84
2023/01/08 03:42:32;;;;;;;4.10;3.70;;;16.60;52.70;;;;;;4979124;28;20208;-83
2023/01/08 03:44:58;;;;;;;4.28;3.92;;;16.60;52.90;;;;;;4979846;28;20285;-84
2023/01/08 03:47:25;;;;;;;3.70;3.40;;;16.60;52.70;;;;;;4995364;28;20554;-84
2023/01/08 03:49:52;;;;;;;3.85;3.55;;;16.60;52.90;;;;;;4979003;28;20225;-84
2023/01/08 03:52:24;;;;;;;4.00;3.60;;;16.60;52.80;;;;;;4978769;28;20201;-84
2023/01/08 03:54:51;;;;;;;3.92;3.63;;;16.60;52.90;;;;;;4978619;28;20217;-84
2023/01/08 03:57:19;;;;;;;4.00;3.70;;;16.60;52.70;;;;;;4979744;28;20213;-84
2023/01/08 03:59:45;;;;;;;3.70;3.40;;;16.60;52.70;;;;;;4978711;28;20225;-84
2023/01/08 04:02:13;;;;;;;3.60;3.30;;;16.60;52.70;;;;;;4978707;28;20220;-84
2023/01/08 04:04:40;;;;;;;4.45;3.38;;;16.60;52.80;;;;;;4978821;28;20229;-84
2023/01/08 04:07:08;;;;;;;3.70;3.22;;;16.60;52.80;;;;;;4978469;28;20335;-84
2023/01/08 04:09:36;;;;;;;3.60;3.30;;;16.60;52.80;;;;;;4978507;28;20240;-84
2023/01/08 04:12:04;;;;;;;3.70;3.40;;;16.70;52.90;;;;;;4978744;28;20244;-85
2023/01/08 04:14:30;;;;;;;4.20;3.90;;;16.70;52.90;;;;;;4978503;28;20268;-84
2023/01/08 04:16:58;;;;;;;4.32;3.92;;;16.60;52.80;;;;;;4978269;28;20201;-84
2023/01/08 04:19:26;;;;;;;4.10;3.80;;;16.60;53.00;;;;;;4978110;28;20727;-84
2023/01/08 04:21:53;;;;;;;3.80;3.50;;;16.60;53.00;;;;;;4978293;28;20719;-84
2023/01/08 04:24:20;;;;;;;4.10;3.70;;;16.60;53.30;;;;;;4978062;28;20280;-84
2023/01/08 04:26:49;;;;;;;4.30;3.90;;;16.60;53.40;;;;;;4978013;28;20665;-84
2023/01/08 04:29:16;;;;;;;3.75;3.35;;;16.60;53.90;;;;;;4978021;28;20222;-85
2023/01/08 04:31:42;;;;;;;3.85;3.55;;;16.50;53.80;;;;;;4978095;28;20593;-85
2023/01/08 04:34:10;;;;;;;4.18;3.78;;;16.50;53.90;;;;;;4977779;28;20275;-85
2023/01/08 04:36:37;;;;;;;4.32;3.22;;;16.60;53.80;;;;;;4978274;28;20212;-84
2023/01/08 04:39:04;;;;;;;4.47;4.07;;;16.60;53.20;;;;;;4978434;28;20227;-84
2023/01/08 04:41:31;;;;;;;4.00;3.60;;;16.70;53.10;;;;;;4978057;28;20197;-84
2023/01/08 04:43:59;;;;;;;3.72;3.42;;;16.70;53.40;;;;;;4994020;28;20250;-84
2023/01/08 04:46:26;;;;;;;3.65;3.30;;;16.70;53.10;;;;;;4977650;28;20208;-85
2023/01/08 04:48:53;;;;;;;3.50;3.20;;;16.70;53.40;;;;;;4977725;28;20272;-84
2023/01/08 04:51:22;;;;;;;3.80;3.50;;;16.80;53.40;;;;;;4961833;28;20197;-84
2023/01/08 04:53:48;;;;;;;2.88;2.67;;;16.80;53.10;;;;;;4978151;28;20297;-84
2023/01/08 04:56:15;;;;;;;3.33;3.00;;;16.90;53.20;;;;;;4978186;28;20201;-84
2023/01/08 04:58:42;;;;;;;3.20;3.00;;;16.90;53.30;;;;;;4977673;28;20229;-85
2023/01/08 05:01:11;;;;;;;2.75;2.55;;;16.90;53.20;;;;;;4978088;28;20273;-84
2023/01/08 05:03:39;;;;;;;3.38;2.80;;;16.90;53.40;;;;;;4978332;28;20300;-84
2023/01/08 05:06:07;;;;;;;3.10;2.70;;;16.90;53.00;;;;;;4979173;28;20201;-84
2023/01/08 05:08:33;;;;;;;2.97;2.78;;;16.90;53.00;;;;;;4996034;28;20288;-84
2023/01/08 05:11:00;;;;;;;3.03;2.83;;;17.00;52.80;;;;;;4995460;28;20208;-84
2023/01/08 05:13:27;;;;;;;2.83;2.55;;;16.90;52.80;;;;;;4978492;28;20216;-84
2023/01/08 05:15:58;;;;;;;2.67;2.47;;;17.00;52.80;;;;;;4978551;28;20653;-84
2023/01/08 05:18:26;;;;;;;2.90;2.70;;;17.00;52.80;;;;;;4978527;28;20217;-84
2023/01/08 05:20:53;;;;;;;2.78;2.58;;;17.00;53.00;;;;;;4977921;28;20255;-84
2023/01/08 05:23:20;;;;;;;2.65;2.45;;;17.00;53.20;;;;;;4979147;28;20224;-84
2023/01/08 05:25:47;;;;;;;2.92;2.72;;;17.10;53.40;;;;;;4978039;28;20204;-84
2023/01/08 05:28:14;;;;;;;2.85;2.55;;;17.10;53.40;;;;;;4978119;28;20224;-84
2023/01/08 05:30:42;;;;;;;2.58;2.30;;;17.10;53.10;;;;;;4978746;28;20602;-84
2023/01/08 05:33:09;;;;;;;2.40;2.30;;;17.10;53.20;;;;;;4978049;28;20209;-84
2023/01/08 05:35:39;;;;;;;2.40;2.20;;;17.10;53.30;;;;;;4978583;28;20214;-85
2023/01/08 05:38:06;;;;;;;2.40;2.20;;;17.10;53.10;;;;;;4978710;28;20221;-84
2023/01/08 05:40:33;;;;;;;2.15;2.00;;;17.20;53.20;;;;;;4979844;28;20205;-84
2023/01/08 05:43:00;;;;;;;2.38;2.17;;;17.20;53.30;;;;;;4979200;28;20536;-84
2023/01/08 05:45:28;;;;;;;2.35;2.15;;;17.20;53.00;;;;;;4995118;28;20212;-84
2023/01/08 05:47:54;;;;;;;2.00;1.90;;;17.20;52.80;;;;;;4979068;28;20209;-84
2023/01/08 05:50:22;;;;;;;2.67;2.45;;;17.30;53.00;;;;;;4982449;28;20201;-84
2023/01/08 05:52:50;;;;;;;2.63;2.42;;;17.30;52.80;;;;;;4982845;28;20567;-84
2023/01/08 05:55:18;;;;;;;2.15;1.98;;;17.30;53.00;;;;;;4982764;28;20575;-85
2023/01/08 05:57:44;;;;;;;2.35;2.13;;;17.30;52.80;;;;;;4981137;28;20544;-84
2023/01/08 06:00:13;;;;;;;2.35;2.15;;;17.40;52.60;;;;;;4981221;28;20201;-85
2023/01/08 06:02:40;;;;;;;2.20;2.00;;;17.50;52.60;;;;;;4980803;28;20205;-84
2023/01/08 06:05:07;;;;;;;3.47;2.40;;;17.50;52.60;;;;;;4980806;28;20565;-84
2023/01/08 06:07:34;;;;;;;2.20;2.00;;;17.60;52.70;;;;;;4980582;28;20259;-84
2023/01/08 06:10:03;;;;;;;2.08;1.90;;;17.60;52.50;;;;;;4981028;28;20233;-84
2023/01/08 06:12:30;;;;;;;2.10;2.00;;;17.70;52.60;;;;;;4980632;28;20205;-84
2023/01/08 06:14:57;;;;;;;2.10;2.00;;;17.70;52.30;;;;;;4980487;28;20820;-83
2023/01/08 06:17:25;;;;;;;2.20;2.00;;;17.70;52.30;;;;;;4980912;28;20205;-83
2023/01/08 06:19:52;;;;;;;2.67;2.30;;;17.70;52.30;;;;;;4981493;28;20240;-83
2023/01/08 06:22:19;;;;;;;2.10;2.00;;;17.80;52.30;;;;;;4981440;28;20268;-84
2023/01/08 06:24:46;;;;;;;2.35;2.15;;;17.80;52.10;;;;;;4980892;28;20226;-84
2023/01/08 06:27:14;;;;;;;2.28;2.17;;;17.80;52.20;;;;;;4980742;28;20205;-83
2023/01/08 06:29:41;;;;;;;2.20;2.08;;;17.80;52.10;;;;;;4981012;28;20217;-84
2023/01/08 06:32:07;;;;;;;2.03;1.92;;;17.80;52.20;;;;;;4980726;28;20267;-84
2023/01/08 06:34:34;;;;;;;1.90;1.80;;;17.90;52.30;;;;;;4981205;28;20244;-85
2023/01/08 06:37:01;;;;;;;2.00;1.90;;;17.90;52.10;;;;;;4980552;28;20217;-84
2023/01/08 06:39:28;;;;;;;2.13;2.03;;;17.90;52.00;;;;;;4980123;28;20221;-84
2023/01/08 06:41:55;;;;;;;2.17;2.05;;;17.90;51.90;;;;;;4980187;28;20212;-84
2023/01/08 06:44:24;;;;;;;1.90;1.80;;;17.90;51.90;;;;;;4980433;28;20193;-85
2023/01/08 06:46:51;;;;;;;1.95;1.85;;;17.90;52.10;;;;;;4979916;28;20299;-84
2023/01/08 06:49:18;;;;;;;2.40;2.20;;;17.90;52.10;;;;;;4979735;28;20224;-85
2023/01/08 06:51:45;;;;;;;1.90;1.80;;;17.90;52.20;;;;;;4979997;28;20201;-84
2023/01/08 06:54:12;;;;;;;1.98;1.88;;;17.90;52.00;;;;;;4981005;28;20300;-84
2023/01/08 06:56:39;;;;;;;1.80;1.70;;;17.90;51.90;;;;;;4979868;28;20209;-85
2023/01/08 06:59:06;;;;;;;2.10;1.90;;;18.00;52.00;;;;;;4979614;28;20755;-84
2023/01/08 07:01:35;;;;;;;2.00;1.90;;;17.90;51.90;;;;;;4980423;28;20204;-83
2023/01/08 07:04:02;;;;;;;1.70;1.60;;;18.00;51.80;;;;;;4980159;28;20259;-83
2023/01/08 07:06:30;;;;;;;1.90;1.80;;;18.00;51.70;;;;;;4979782;28;20267;-83
2023/01/08 07:08:57;;;;;;;1.80;1.70;;;17.90;51.70;;;;;;4979690;28;20295;-83
2023/01/08 07:11:24;;;;;;;2.08;1.92;;;18.00;51.80;;;;;;4979534;28;20621;-84
2023/01/08 07:13:51;;;;;;;1.60;1.50;;;18.00;51.90;;;;;;4979528;28;20213;-83
2023/01/08 07:16:19;;;;;;;1.83;1.73;;;18.00;51.80;;;;;;4979390;28;20272;-83
2023/01/08 07:18:47;;;;;;;1.90;1.80;;;18.00;51.70;;;;;;4979873;28;20303;-83
2023/01/08 07:21:15;;;;;;;1.77;1.60;;;18.00;51.70;;;;;;4980942;28;20201;-83
2023/01/08 07:23:42;;;;;;;1.80;1.70;;;18.10;51.70;;;;;;4980305;28;20244;-84
2023/01/08 07:26:09;;;;;;;1.90;1.80;;;18.00;51.70;;;;;;4999254;28;20193;-84
2023/01/08 07:28:36;;;;;;;2.00;1.90;;;18.00;52.10;;;;;;4979594;28;20221;-83
2023/01/08 07:31:04;;;;;;;1.90;1.80;;;18.00;52.20;;;;;;4979333;28;20197;-83
2023/01/08 07:33:31;;;;;;;1.70;1.60;;;18.00;51.90;;;;;;4979081;28;20726;-83
2023/01/08 07:35:59;;;;;;;1.98;1.88;;;18.00;51.70;;;;;;4979273;28;20213;-84
2023/01/08 07:38:27;;;;;;;2.10;2.00;;;18.00;51.80;;;;;;4979343;28;20225;-83
2023/01/08 07:40:53;;;;;;;1.83;1.70;;;18.10;52.00;;;;;;4979089;28;20576;-84
2023/01/08 07:43:21;;;;;;;1.83;1.73;;;18.10;51.80;;;;;;4979487;28;20212;-84
2023/01/08 07:45:47;;;;;;;2.03;1.83;;;18.10;51.70;;;;;;4979337;28;20193;-82
2023/01/08 07:48:15;;;;;;;1.70;1.60;;;18.10;51.80;;;;;;4979223;28;20221;-80
2023/01/08 07:50:43;;;;;;;1.70;1.60;;;18.20;51.80;;;;;;4980156;28;20541;-80
2023/01/08 07:53:12;;;;;;;1.90;1.80;;;18.20;52.20;;;;;;4982159;28;20648;-83
2023/01/08 07:55:39;;;;;;;1.83;1.73;;;18.20;51.80;;;;;;4982238;28;20590;-82
2023/01/08 07:58:09;;;;;;;1.60;1.50;;;18.10;51.70;;;;;;4979169;28;20225;-83
2023/01/08 08:00:36;;;;;;;2.50;1.77;;;18.20;51.70;;;;;;4979240;28;20233;-83
2023/01/08 08:03:04;;;;;;;1.60;1.50;;;18.20;51.60;;;;;;4994992;28;20193;-83
2023/01/08 08:05:31;;;;;;;1.70;1.60;;;18.20;51.80;;;;;;4978581;28;20255;-83
2023/01/08 08:07:58;;;;;;;1.73;1.63;;;18.20;51.60;;;;;;4978522;28;20676;-83
2023/01/08 08:10:26;;;;;;;1.75;1.65;;;18.20;51.70;;;;;;4978568;28;20208;-83
2023/01/08 08:12:53;;;;;;;1.80;1.70;;;18.20;51.60;;;;;;4977443;28;20197;-83
2023/01/08 08:15:21;;;;;;;1.65;1.55;;;18.30;51.50;;;;;;4978740;28;20225;-83
2023/01/08 08:17:48;;;;;;;1.77;1.67;;;18.30;51.60;;;;;;4978142;28;20232;-83
2023/01/08 08:20:15;;;;;;;1.70;1.60;;;18.30;51.60;;;;;;4997252;28;20539;-83
2023/01/08 08:22:42;;;;;;;1.88;1.77;;;18.30;51.40;;;;;;4980206;28;20201;-82
2023/01/08 08:25:10;;;;;;;1.73;1.63;;;18.30;51.50;;;;;;4978646;28;20200;-82
2023/01/08 08:27:38;;;;;;;1.67;1.58;;;18.30;51.60;;;;;;4979062;28;20264;-83
2023/01/08 08:30:06;;;;;;;1.92;1.75;;;18.30;51.40;;;;;;4979073;28;20205;-83
2023/01/08 08:32:33;;;;;;;1.70;1.60;;;18.30;51.40;;;;;;4978310;28;20220;-82
2023/01/08 08:35:00;;;;;;;1.70;1.60;;;18.30;51.50;;;;;;4978249;28;20651;-82
2023/01/08 08:37:27;;;;;;;1.83;1.60;;;18.30;51.40;;;;;;4979433;28;20238;-82
2023/01/08 08:39:54;;;;;;;1.90;1.70;;;18.30;51.50;;;;;;4979047;28;20610;-82
2023/01/08 08:42:21;;;;;;;1.80;1.70;;;18.30;51.60;;;;;;4978487;28;20197;-83
2023/01/08 08:44:50;;;;;;;1.92;1.75;;;18.30;51.30;;;;;;4977773;28;20197;-83
2023/01/08 08:47:17;;;;;;;1.70;1.60;;;18.30;51.40;;;;;;4977772;28;20205;-83
2023/01/08 08:49:44;;;;;;;1.77;1.67;;;18.30;51.20;;;;;;4977779;28;20217;-82
2023/01/08 08:52:11;;;;;;;1.60;1.50;;;18.40;51.30;;;;;;4977736;28;20201;-82
2023/01/08 08:54:40;;;;;;;1.52;1.42;;;18.40;51.20;;;;;;4977740;28;20202;-82
2023/01/08 08:57:08;;;;;;;1.77;1.67;;;18.50;51.30;;;;;;4978653;28;20216;-83
2023/01/08 08:59:34;;;;;;;1.70;1.60;;;18.50;51.30;;;;;;4978310;28;20213;-83
2023/01/08 09:02:03;;;;;;;1.70;1.60;;;18.40;51.20;;;;;;4977772;28;20201;-83
2023/01/08 09:04:30;;;;;;;1.70;1.60;;;18.50;51.20;;;;;;4977727;28;20572;-80
2023/01/08 09:06:57;;;;;;;1.90;1.80;;;18.50;51.20;;;;;;4977554;28;20229;-80
2023/01/08 09:09:25;;;;;;;1.85;1.70;;;18.50;51.10;;;;;;4977512;28;20331;-81
2023/01/08 09:11:52;;;;;;;1.70;1.60;;;18.50;51.10;;;;;;4977601;28;20754;-81
2023/01/08 09:14:19;;;;;;;1.70;1.60;;;18.50;51.10;;;;;;4979644;28;20598;-83
2023/01/08 09:16:46;;;;;;;1.52;1.42;;;18.50;51.10;;;;;;4977257;28;20217;-83
2023/01/08 09:19:14;;;;;;;1.77;1.67;;;18.50;51.10;;;;;;4977621;28;20213;-83
2023/01/08 09:21:41;;;;;;;1.80;1.70;;;18.50;51.10;;;;;;4977285;28;20202;-83
2023/01/08 09:24:09;;;;;;;1.70;1.60;;;18.50;51.80;;;;;;4976969;28;20204;-83
2023/01/08 09:26:35;;;;;;;1.48;1.38;;;18.50;51.00;;;;;;4977232;28;20198;-83
2023/01/08 09:29:02;;;;;;;1.70;1.60;;;18.50;51.00;;;;;;4977588;28;20229;-82
2023/01/08 09:31:29;;;;;;;1.63;1.52;;;18.50;51.00;;;;;;4977518;28;20248;-83
2023/01/08 09:33:56;;;;;;;1.80;1.70;;;18.50;51.00;;;;;;4979191;28;20208;-83
2023/01/08 09:36:25;;;;;;;1.60;1.50;;;18.60;51.10;;;;;;4977960;28;20221;-82
2023/01/08 09:38:52;;;;;;;1.60;1.50;;;18.60;51.10;;;;;;4977430;28;20229;-83
2023/01/08 09:41:21;;;;;;;1.50;1.40;;;18.60;51.00;;;;;;4978102;28;20208;-83
2023/01/08 09:43:50;;;;;;;1.67;1.58;;;18.60;51.00;;;;;;4977665;28;20244;-82
2023/01/08 09:46:18;;;;;;;1.42;1.33;;;18.60;51.00;;;;;;4977304;28;20198;-83
2023/01/08 09:48:45;;;;;;;1.65;1.55;;;18.60;51.00;;;;;;4977005;28;20634;-82
2023/01/08 09:51:14;;;;;;;1.60;1.50;;;18.60;50.90;;;;;;4977130;28;20289;-82
2023/01/08 09:53:42;;;;;;;1.70;1.60;;;18.60;50.90;;;;;;4977008;28;20205;-82
2023/01/08 09:56:11;;;;;;;1.40;1.30;;;18.60;50.90;;;;;;4976908;28;20241;-84
2023/01/08 09:58:39;;;;;;;1.80;1.70;;;18.60;50.90;;;;;;4977294;28;20222;-84
2023/01/08 10:01:06;;;;;;;1.80;1.70;;;18.60;50.90;;;;;;4977247;28;20644;-84
2023/01/08 10:03:39;;;;;;;1.98;1.88;;;18.60;50.80;;;;;;4977207;28;20248;-83
2023/01/08 10:06:09;;;;;;;1.65;1.55;;;18.60;50.90;;;;;;4977911;28;20197;-84
2023/01/08 10:08:36;;;;;;;1.90;1.80;;;18.60;50.90;;;;;;4976842;28;20635;-84
2023/01/08 10:11:05;;;;;;;1.45;1.35;;;18.60;50.90;;;;;;4976931;28;20205;-84
2023/01/08 10:13:32;;;;;;;1.63;1.52;;;18.60;50.80;;;;;;4977452;28;20358;-83
2023/01/08 10:15:59;;;;;;;1.55;1.45;;;18.60;50.90;;;;;;4977830;28;20558;-83
2023/01/08 10:18:27;;;;;;;1.70;1.60;;;18.70;50.90;;;;;;4977246;28;20221;-83
2023/01/08 10:20:54;;;;;;;1.70;1.60;;;18.70;50.90;;;;;;4978375;28;20571;-83
2023/01/08 10:23:21;;;;;;;1.65;1.55;;;18.70;50.80;;;;;;4980220;28;20229;-85
2023/01/08 10:25:53;;;;;;;1.65;1.55;;;18.70;50.90;;;;;;4979650;28;20202;-83
2023/01/08 10:28:23;;;;;;;2.53;1.60;;;18.70;50.80;;;;;;4977200;28;20225;-83
2023/01/08 10:30:50;;;;;;;1.83;1.70;;;18.60;50.70;;;;;;4977329;28;20206;-82
2023/01/08 10:33:20;;;;;;;1.75;1.65;;;18.60;50.90;;;;;;4977483;28;20201;-82
2023/01/08 10:35:53;;;;;;;1.77;1.67;;;18.60;51.00;;;;;;4978974;28;20235;-84
2023/01/08 10:38:26;;;;;;;1.75;1.65;;;18.60;51.30;;;;;;4980322;28;20221;-82
2023/01/08 10:40:53;;;;;;;2.03;1.50;;;18.60;51.50;;;;;;4980722;28;20209;-82
2023/01/08 10:43:22;;;;;;;1.65;1.55;;;18.60;51.10;;;;;;4980654;28;20252;-81
2023/01/08 10:45:57;;;;;;;1.70;1.60;;;18.60;51.00;;;;;;4980271;28;20204;-82
2023/01/08 10:48:25;;;;;;;2.97;1.60;;;18.60;52.20;;;;;;4996401;28;20228;-83
2023/01/08 10:50:52;;;;;;;1.92;1.70;;;18.60;51.90;;;;;;4980109;28;20202;-83
2023/01/08 10:53:23;;;;;;;1.65;1.55;;;18.60;53.20;;;;;;4980170;28;20205;-81
2023/01/08 10:55:57;;;;;;;1.88;1.77;;;18.60;53.30;;;;;;4980376;28;20213;-82
2023/01/08 10:58:27;;;;;;;1.70;1.48;;;18.60;52.90;;;;;;4979860;28;20292;-82
2023/01/08 11:00:56;;;;;;;1.92;1.73;;;18.70;53.30;;;;;;4980301;28;20663;-82
2023/01/08 11:03:26;;;;;;;2.15;1.83;;;18.80;53.10;;;;;;4979770;28;20227;-82
2023/01/08 11:05:53;;;;;;;1.83;1.73;;;18.80;53.20;;;;;;4979827;28;20210;-82
2023/01/08 11:08:21;;;;;;;272.05;159.27;;;18.80;53.30;;;;;;4979465;28;20803;-82
2023/01/08 11:10:53;;;;;;;202.55;144.07;;;18.80;55.90;;;;;;4979745;28;20209;-82
2023/01/08 11:13:20;;;;;;;206.57;165.02;;;18.90;57.50;;;;;;4979824;28;20193;-82
2023/01/08 11:15:57;;;;;;;94.97;76.65;;;18.90;57.60;;;;;;4979600;28;20213;-82
2023/01/08 11:18:25;;;;;;;84.43;61.33;;;19.00;55.90;;;;;;4979684;28;20684;-82
2023/01/08 11:20:53;;;;;;;66.47;47.58;;;19.10;55.80;;;;;;4979539;28;20218;-82
2023/01/08 11:23:21;;;;;;;57.63;44.95;;;19.10;54.90;;;;;;4979985;28;20213;-82
2023/01/08 11:25:52;;;;;;;50.92;38.25;;;19.10;54.60;;;;;;4979683;28;20201;-83
2023/01/08 11:28:23;;;;;;;54.75;37.03;;;19.20;54.30;;;;;;4979637;28;20277;-80
2023/01/08 11:30:54;;;;;;;53.70;37.90;;;19.20;54.10;;;;;;4979668;28;20196;-81
2023/01/08 11:33:22;;;;;;;34.13;28.48;;;19.30;54.00;;;;;;4981124;28;20224;-83
2023/01/08 11:35:50;;;;;;;42.72;33.13;;;19.40;53.60;;;;;;4980398;28;20213;-83
2023/01/08 11:38:18;;;;;;;35.53;27.20;;;19.40;53.60;;;;;;4979823;28;20591;-80
2023/01/08 11:40:47;;;;;;;33.30;25.52;;;19.30;53.10;;;;;;4996734;28;20201;-80
2023/01/08 11:43:21;;;;;;;36.38;27.83;;;19.30;53.10;;;;;;4968287;28;20448;-80
2023/01/08 11:45:58;;;;;;;31.25;26.00;;;19.40;53.50;;;;;;4998842;28;20184;-80
2023/01/08 11:48:35;;;;;;;30.48;22.50;;;19.30;53.80;;;;;;4991514;28;20247;-80
2023/01/08 11:51:24;;;;;;;31.83;22.25;;;19.40;53.20;;;;;;4988042;28;20197;-79
2023/01/08 11:53:56;;;;;;;25.33;19.63;;;19.30;53.40;;;;;;4969757;28;20201;-79
2023/01/08 11:56:31;;;;;;;26.45;21.35;;;19.40;53.80;;;;;;4995079;28;20217;-79
2023/01/08 11:59:04;;;;;;;25.45;20.58;;;19.40;52.90;;;;;;4979617;28;20216;-80
2023/01/08 12:04:40;;;;;;;26.52;19.65;;;19.40;52.20;;;;;;5111808;27;20546;-53
2023/01/08 12:07:11;;;;;;;22.20;18.38;;;19.30;51.60;;;;;;5109699;28;20213;-54
2023/01/08 12:09:40;;;;;;;22.15;17.25;;;19.30;51.40;;;;;;5111252;28;20184;-53
2023/01/08 12:12:14;;;;;;;21.13;17.13;;;19.30;51.40;;;;;;5110870;28;20268;-53
2023/01/08 12:14:48;;;;;;;24.50;16.75;;;19.20;51.30;;;;;;5111195;28;20610;-54
2023/01/08 12:17:38;;;;;;;25.35;17.55;;;19.20;51.60;;;;;;5110837;28;20212;-54
2023/01/08 12:20:16;;;;;;;19.77;16.08;;;19.20;51.60;;;;;;5109640;28;20189;-53
2023/01/08 12:22:45;;;;;;;23.23;16.70;;;19.10;51.80;;;;;;5109590;28;20631;-54
2023/01/08 12:25:26;;;;;;;19.55;15.25;;;19.10;51.90;;;;;;5110272;28;20667;-53
2023/01/08 12:27:58;;;;;;;18.98;13.88;;;19.10;51.90;;;;;;5110367;28;20327;-54
2023/01/08 12:30:30;;;;;;;19.33;15.02;;;19.10;51.60;;;;;;5111478;28;20205;-56
2023/01/08 12:33:00;;;;;;;19.05;13.90;;;19.10;51.80;;;;;;5100132;22;20306;-66
2023/01/08 12:35:30;;;;;;;18.63;13.23;;;19.10;51.90;;;;;;5049117;28;20223;-66
2023/01/08 12:37:59;;;;;;;15.27;12.77;;;19.10;51.70;;;;;;5050066;28;20195;-67
2023/01/08 12:40:29;;;;;;;18.48;13.88;;;19.10;51.60;;;;;;5050345;28;20216;-66
2023/01/08 12:42:56;;;;;;;20.20;12.85;;;19.10;51.60;;;;;;5048593;28;20314;-67
2023/01/08 12:45:26;;;;;;;15.48;11.80;;;19.10;51.70;;;;;;5049998;28;20261;-67
2023/01/08 12:47:57;;;;;;;15.70;11.52;;;19.00;51.50;;;;;;5048668;28;20188;-68
2023/01/08 12:50:48;;;;;;;16.17;10.85;;;19.10;51.60;;;;;;5048747;28;20188;-70
2023/01/08 12:53:19;;;;;;;17.02;11.43;;;19.10;51.40;;;;;;5048557;28;20219;-69